Flight Track Log - Related Links

Times and Time Zones

All times are in EDT time to prevent confusion due to time zone crossing. See the RPA3357 flight status page for this flight to view local times or setup timezone preferences in your user account.

Time Position Orientation Groundspeed Altitude Reporting Facility
EDT Latitude Longitude Course Direction KTS MPH feet Rate Location/Type
Wed 11:55:18 AM 39.8667 -75.2833 258° West 144 166 900  Level Philadelphia TRACON
Wed 11:55:48 AM 39.8500 -75.3167 237° Southwest 154 177 1,500 1,467 Climbing Philadelphia TRACON
Wed 11:56:48 AM 39.8500 -75.3833 270° West 218 251 3,100 2,021 Climbing Philadelphia TRACON
Wed 11:59:01 AM 39.8358 -75.5856 265° West 258 297 8,000 2,281 Climbing New York Center
Wed 12:00:00 PM 39.8096 -75.9261 258° West  Level FlightAware Approximate
Wed 12:00:00 PM 39.8361 -75.6831 270° West 271 312 10,400  Level New York Center
Wed 12:01:01 PM 39.8356 -75.7939 270° West 283 326 11,600 1,550 Climbing New York Center
Wed 12:02:00 PM 39.8267 -75.9042 264° West 309 356 13,500 1,800 Climbing New York Center
Wed 12:03:01 PM 39.8156 -76.0167 263° West 314 361 15,200 1,488 Climbing New York Center
Wed 12:04:01 PM 39.7997 -76.1344 260° West 320 368 16,500 1,412 Climbing New York Center
Wed 12:05:00 PM 39.7739 -76.2406 252° West 334 384 18,000 1,275 Climbing New York Center
Wed 12:07:14 PM 39.6483 -76.4600 233° Southwest 350 403 20,600 1,127 Climbing Washington Center
Wed 12:08:17 PM 39.5756 -76.5619 227° Southwest 363 418 21,700 1,210 Climbing Washington Center
Wed 12:09:18 PM 39.4925 -76.6808 228° Southwest 367 422 23,100 1,143 Climbing Washington Center
Wed 12:10:23 PM 39.4208 -76.7811 227° Southwest 375 432 24,100 1,008 Climbing Washington Center
Wed 12:11:23 PM 39.3506 -76.8847 229° Southwest 379 436 25,200 968 Climbing Washington Center
Wed 12:12:27 PM 39.2792 -76.9847 227° Southwest 380 437 26,100 864 Climbing Washington Center
Wed 12:13:28 PM 39.2044 -77.0881 227° Southwest 391 450 27,000 864 Climbing Washington Center
Wed 12:14:32 PM 39.1294 -77.1922 227° Southwest 395 455 27,900 960 Climbing Washington Center
Wed 12:15:33 PM 39.0369 -77.3211 227° Southwest 408 470 29,000 1,082 Climbing Washington Center
Wed 12:16:34 PM 38.9589 -77.4269 227° Southwest 406 467 30,100 912 Climbing Washington Center
Wed 12:17:38 PM 38.8842 -77.5306 227° Southwest 409 471 30,900 816 Climbing Washington Center
Wed 12:18:39 PM 38.7944 -77.6514 226° Southwest 424 488 31,800 816 Climbing Washington Center
Wed 12:19:43 PM 38.7133 -77.7658 228° Southwest 425 489 32,600 1,065 Climbing Washington Center
Wed 12:20:43 PM 38.6344 -77.8769 228° Southwest 423 487 34,000 677 Climbing Washington Center
Wed 12:21:47 PM 38.5667 -77.9917 233° Southwest 409 471 34,000  Level Washington Center
Wed 12:22:47 PM 38.4997 -78.1089 234° Southwest 409 471 34,000  Level Washington Center
Wed 12:23:50 PM 38.4308 -78.2231 232° Southwest 408 470 34,000  Level Washington Center
Wed 12:24:51 PM 38.3494 -78.3614 233° Southwest 407 468 34,000  Level Washington Center
Wed 12:25:54 PM 38.2825 -78.4736 233° Southwest 402 463 34,000  Level Washington Center
Wed 12:26:58 PM 38.2131 -78.5894 233° Southwest 401 461 34,000  Level Washington Center
Wed 12:27:59 PM 38.1461 -78.7000 232° Southwest 399 459 34,000  Level Washington Center
Wed 12:29:00 PM 38.0800 -78.8122 233° Southwest 399 459 34,000  Level Washington Center
Wed 12:30:04 PM 38.0131 -78.9228 232° Southwest 398 458 34,000  Level Washington Center
Wed 12:31:05 PM 37.9328 -79.0556 233° Southwest 398 458 34,000  Level Washington Center
Wed 12:32:09 PM 37.8614 -79.1625 230° Southwest 398 458 34,000  Level Washington Center
Wed 12:33:09 PM 37.7872 -79.2661 228° Southwest 398 458 34,000  Level Washington Center
Wed 12:34:13 PM 37.7125 -79.3694 228° Southwest 398 458 34,000  Level Washington Center
Wed 12:35:14 PM 37.6361 -79.4733 227° Southwest 400 460 34,000  Level Washington Center
Wed 12:36:15 PM 37.5464 -79.5975 228° Southwest 400 460 34,000  Level Washington Center
Wed 12:37:19 PM 37.4700 -79.7019 227° Southwest 404 465 34,000  Level Washington Center
Wed 12:38:20 PM 37.4003 -79.7981 228° Southwest 406 467 34,000  Level Washington Center
Wed 12:39:24 PM 37.3089 -79.9211 227° Southwest 405 466 34,000  Level Washington Center
Wed 12:40:24 PM 37.2336 -80.0247 228° Southwest 404 465 34,000  Level Washington Center
Wed 12:41:28 PM 37.1572 -80.1283 227° Southwest 404 465 34,000  Level Washington Center
Wed 12:42:28 PM 37.0806 -80.2306 227° Southwest 403 464 34,000  Level Washington Center
Wed 12:43:32 PM 37.0050 -80.3336 227° Southwest 402 463 34,000  Level Washington Center
Wed 12:44:33 PM 36.9278 -80.4350 226° Southwest 402 463 34,000  Level Washington Center
Wed 12:45:36 PM 36.8372 -80.5592 228° Southwest 402 463 34,000  Level Washington Center
Wed 12:46:39 PM 36.7592 -80.6597 226° Southwest 403 464 34,000  Level Washington Center
Wed 12:47:40 PM 36.6822 -80.7625 227° Southwest 404 465 34,000  Level Washington Center
Wed 12:48:44 PM 36.6008 -80.8714 227° Southwest 404 465 34,000  Level Washington Center
Wed 12:49:45 PM 36.5272 -80.9761 229° Southwest 404 465 34,000  Level Washington Center
Wed 12:50:46 PM 36.4664 -81.0914 237° Southwest 400 460 34,000  Level Washington Center
Wed 12:51:50 PM 36.4044 -81.2042 236° Southwest 400 460 34,000  Level Washington Center
Wed 12:52:57 PM 36.3292 -81.3456 237° Southwest 407 468 34,000  Level Atlanta Center
Wed 12:53:57 PM 36.2519 -81.4486 227° Southwest 407 468 34,000  Level Atlanta Center
Wed 12:54:57 PM 36.1728 -81.5439 224° Southwest 407 468 34,000  Level Atlanta Center
Wed 12:55:57 PM 36.0911 -81.6439 225° Southwest 412 474 34,000  Level Atlanta Center
Wed 12:56:57 PM 36.0056 -81.7467 224° Southwest 417 480 34,000  Level Atlanta Center
Wed 12:57:57 PM 35.9197 -81.8464 223° Southwest 427 491 34,000  Level Atlanta Center
Wed 12:58:57 PM 35.8297 -81.9436 221° Southwest 432 497 34,000  Level Atlanta Center
Wed 12:59:57 PM 35.7439 -82.0456 224° Southwest 437 503 34,000  Level Atlanta Center
Wed 01:00:57 PM 35.6556 -82.1397 221° Southwest 437 503 34,000 -400 Level Atlanta Center
Wed 01:01:57 PM 35.5694 -82.2361 222° Southwest 432 497 33,200 -1,000 Descending Atlanta Center
Wed 01:02:57 PM 35.4853 -82.3325 223° Southwest 427 491 32,000 -1,100 Descending Atlanta Center
Wed 01:03:57 PM 35.4136 -82.4256 227° Southwest 422 486 31,000 -700 Descending Atlanta Center
Wed 01:04:57 PM 35.3319 -82.5697 235° Southwest 432 497 30,600 -750 Descending Atlanta Center
Wed 01:05:57 PM 35.2706 -82.6728 234° Southwest 432 497 29,500 -800 Descending Atlanta Center
Wed 01:06:57 PM 35.1881 -82.7706 224° Southwest 432 497 29,000 -450 Descending Atlanta Center
Wed 01:07:57 PM 35.0950 -82.8686 221° Southwest 427 491 28,600 -700 Descending Atlanta Center
Wed 01:08:57 PM 35.0042 -82.9611 220° Southwest 433 498 27,600 -1,000 Descending Atlanta Center
Wed 01:09:57 PM 34.9028 -83.0586 218° Southwest 433 498 26,600 -992 Descending Atlanta Center
Wed 01:10:58 PM 34.8117 -83.1458 218° Southwest 433 498 25,600 -1,000 Descending Atlanta Center
Wed 01:11:57 PM 34.7225 -83.2300 218° Southwest 422 486 24,600 -807 Descending Atlanta Center
Wed 01:12:57 PM 34.6375 -83.3142 219° Southwest 411 473 24,000 -1,250 Descending Atlanta Center
Wed 01:13:57 PM 34.5503 -83.3983 218° Southwest 406 467 22,100 -2,000 Descending Atlanta Center
Wed 01:14:57 PM 34.4672 -83.4819 220° Southwest 406 467 20,000 -2,100 Descending Atlanta Center
Wed 01:15:57 PM 34.3839 -83.5606 218° Southwest 396 456 17,900 -2,000 Descending Atlanta Center
Wed 01:16:57 PM 34.3028 -83.6389 219° Southwest 386 444 16,000 -1,900 Descending Atlanta Center
Wed 01:17:57 PM 34.2258 -83.7147 219° Southwest 376 433 14,100 -1,850 Descending Atlanta Center
Wed 01:18:57 PM 34.1489 -83.7878 218° Southwest 371 427 12,300 -1,050 Descending Atlanta Center
Wed 01:19:57 PM 34.0800 -83.8506 217° Southwest 345 397 12,000 -480 Descending Atlanta Center
Wed 01:20:37 PM 34.0333 -83.9000 221° Southwest 296 341 11,500 -906 Descending Atlanta TRACON
Wed 01:21:43 PM 33.9667 -83.9667 220° Southwest 288 331 10,400 -1,000 Descending Atlanta TRACON
Wed 01:22:37 PM 33.9000 -83.9667 180° South 298 343 9,500 -684 Descending Atlanta TRACON
Wed 01:23:37 PM 33.8167 -83.9667 180° South 289 333 9,100 -250 Descending Atlanta TRACON
Wed 01:24:37 PM 33.7333 -83.9667 180° South 293 337 9,000 -571 Descending Atlanta TRACON
Wed 01:25:43 PM 33.6500 -84.0000 198° South 257 296 7,900 -1,095 Descending Atlanta TRACON
Wed 01:26:43 PM 33.6333 -84.0667 253° West 234 269 6,700 -1,211 Descending Atlanta TRACON
Wed 01:27:37 PM 33.6333 -84.1333 270° West 223 257 5,600 -1,211 Descending Atlanta TRACON
Wed 01:28:37 PM 33.6333 -84.2000 270° West 215 247 4,400 -1,143 Descending Atlanta TRACON
Wed 01:29:43 PM 33.6333 -84.2833 270° West 195 224 3,200 -1,048 Descending Atlanta TRACON
Wed 01:30:43 PM 33.6333 -84.3333 270° West 176 203 2,200 -1,000 Descending Atlanta TRACON
Wed 01:32:00 PM 33.6333 -84.4167 270° West  Level FlightAware Approximate
Wed 01:39:00 PM 33.6367 -84.4279 270° West  Level Estimated
Wed 01:40:00 PM 33.6367 -84.4279 91° East  Level Estimated
Wed 01:41:00 PM 33.6367 -84.4279 91° East  Level Estimated

Login

Don't have an account? Register now (free) for customized features, flight alerts, and more!